Time;durP1;ratioP1;P1;durP2;ratioP2;P2;SDS_P1;SDS_P2;PMS_P1;PMS_P2;Temp;Humidity;BMP_temperature;BMP_pressure;BME280_temperature;BME280_humidity;BME280_pressure;Samples;Min_cycle;Max_cycle;Signal;HPM_P1;HPM_P2
2023/06/28 00:00:09;;;;;;;2.38;1.05;;;14.60;99.90;;;;;;5083474;28;20036;-63
2023/06/28 00:02:37;;;;;;;2.15;1.23;;;14.60;99.90;;;;;;5089564;28;20048;-63
2023/06/28 00:05:04;;;;;;;1.75;1.15;;;14.50;99.90;;;;;;5089532;28;20046;-63
2023/06/28 00:07:31;;;;;;;1.65;1.05;;;14.50;99.90;;;;;;5089081;28;20118;-63
2023/06/28 00:09:58;;;;;;;1.67;1.20;;;14.50;99.90;;;;;;5089279;28;20048;-63
2023/06/28 00:12:24;;;;;;;4.32;0.70;;;14.50;99.90;;;;;;5090579;28;20502;-63
2023/06/28 00:14:50;;;;;;;2.55;0.90;;;14.50;99.90;;;;;;5088987;28;20130;-63
2023/06/28 00:17:17;;;;;;;2.50;1.10;;;14.40;99.90;;;;;;5072315;28;20036;-63
2023/06/28 00:19:47;;;;;;;3.00;1.45;;;14.50;99.90;;;;;;5090372;28;20105;-63
2023/06/28 00:22:19;;;;;;;3.03;1.60;;;14.50;99.90;;;;;;5089312;28;20065;-63
2023/06/28 00:24:45;;;;;;;1.33;0.90;;;14.50;99.90;;;;;;5089657;28;20485;-63
2023/06/28 00:27:11;;;;;;;1.95;1.13;;;14.50;99.90;;;;;;5068222;28;20508;-63
2023/06/28 00:29:37;;;;;;;1.48;1.00;;;14.40;99.90;;;;;;5070019;28;20487;-63
2023/06/28 00:32:04;;;;;;;1.70;1.25;;;14.50;99.90;;;;;;5068725;28;20040;-63
2023/06/28 00:34:29;;;;;;;2.95;0.88;;;14.40;99.90;;;;;;5051372;28;20622;-63
2023/06/28 00:36:55;;;;;;;2.92;1.50;;;14.40;99.90;;;;;;5068487;28;20067;-63
2023/06/28 00:39:21;;;;;;;2.95;0.90;;;14.40;99.90;;;;;;5068931;28;20109;-63
2023/06/28 00:41:47;;;;;;;2.97;1.27;;;14.40;99.90;;;;;;5069218;28;20493;-63
2023/06/28 00:44:13;;;;;;;2.25;1.33;;;14.40;99.90;;;;;;5068757;28;20047;-63
2023/06/28 00:46:39;;;;;;;3.00;1.40;;;14.40;99.90;;;;;;5068461;28;20408;-63
2023/06/28 00:49:05;;;;;;;1.52;0.95;;;14.40;99.90;;;;;;5067772;28;20032;-63
2023/06/28 00:51:32;;;;;;;1.52;1.00;;;14.40;99.90;;;;;;5069443;28;20045;-63
2023/06/28 00:54:01;;;;;;;2.08;1.17;;;14.40;99.90;;;;;;5067614;28;20493;-63
2023/06/28 00:56:29;;;;;;;2.22;1.00;;;14.40;99.90;;;;;;5068332;28;20043;-63
2023/06/28 00:58:55;;;;;;;3.00;1.20;;;14.40;99.90;;;;;;5070795;28;20097;-63
2023/06/28 01:01:23;;;;;;;2.03;0.90;;;14.40;99.90;;;;;;5088004;28;20083;-63
2023/06/28 01:03:50;;;;;;;2.08;0.80;;;14.40;99.90;;;;;;5087026;28;20043;-63
2023/06/28 01:06:18;;;;;;;2.33;1.17;;;14.40;99.90;;;;;;5087546;28;20527;-63
2023/06/28 01:08:45;;;;;;;1.65;1.20;;;14.40;99.90;;;;;;5086972;28;20516;-63
2023/06/28 01:11:11;;;;;;;2.20;1.30;;;14.40;99.90;;;;;;5070762;28;20488;-63
2023/06/28 01:13:38;;;;;;;2.40;1.23;;;14.40;99.90;;;;;;5087524;28;20122;-63
2023/06/28 01:16:05;;;;;;;4.45;1.30;;;14.40;99.90;;;;;;5088202;28;20111;-63
2023/06/28 01:18:34;;;;;;;1.55;0.82;;;14.40;99.90;;;;;;5087614;28;20048;-63
2023/06/28 01:21:08;;;;;;;1.40;0.97;;;14.30;99.90;;;;;;5087602;28;20040;-63
2023/06/28 01:23:35;;;;;;;4.13;1.10;;;14.30;99.90;;;;;;5067154;28;20044;-63
2023/06/28 01:26:02;;;;;;;2.15;1.10;;;14.30;99.90;;;;;;5066965;28;20070;-63
2023/06/28 01:28:29;;;;;;;2.65;1.10;;;14.20;99.90;;;;;;5067305;28;20044;-63
2023/06/28 01:30:56;;;;;;;3.95;0.95;;;14.20;99.90;;;;;;5066319;28;20047;-63
2023/06/28 01:33:22;;;;;;;1.13;0.80;;;14.20;99.90;;;;;;5068316;28;20115;-63
2023/06/28 01:35:47;;;;;;;2.30;0.82;;;14.20;99.90;;;;;;5068233;28;20124;-63
2023/06/28 01:38:15;;;;;;;3.75;1.33;;;14.10;99.90;;;;;;5067362;28;20048;-63
2023/06/28 01:40:42;;;;;;;4.50;1.00;;;14.10;99.90;;;;;;5066337;28;20048;-63
2023/06/28 01:43:08;;;;;;;2.88;1.13;;;14.10;99.90;;;;;;5068147;28;20045;-63
2023/06/28 01:45:34;;;;;;;1.73;1.00;;;14.10;99.90;;;;;;5067417;28;20082;-63
2023/06/28 01:48:00;;;;;;;1.55;0.63;;;14.20;99.90;;;;;;5068335;28;20036;-63
2023/06/28 01:50:27;;;;;;;2.85;1.27;;;14.10;99.90;;;;;;5066793;28;20488;-63
2023/06/28 01:53:00;;;;;;;1.83;0.90;;;14.20;99.90;;;;;;5007475;28;1228866;-63
2023/06/28 01:55:25;;;;;;;1.85;0.85;;;14.20;99.90;;;;;;5068866;28;20045;-63
2023/06/28 01:57:51;;;;;;;1.20;0.73;;;14.30;99.90;;;;;;5068356;28;20029;-63
2023/06/28 02:00:18;;;;;;;2.88;0.93;;;14.30;99.90;;;;;;5082362;28;20435;-63
2023/06/28 02:02:44;;;;;;;0.93;0.68;;;14.40;99.90;;;;;;5089255;28;20153;-63
2023/06/28 02:05:10;;;;;;;2.53;0.77;;;14.50;99.90;;;;;;5087096;28;20044;-63
2023/06/28 02:07:37;;;;;;;1.55;0.95;;;14.60;99.90;;;;;;5087828;28;20047;-63
2023/06/28 02:10:04;;;;;;;3.88;1.02;;;14.60;99.90;;;;;;5071035;28;20032;-63
2023/06/28 02:12:29;;;;;;;1.65;1.02;;;14.70;99.90;;;;;;5087310;28;20036;-63
2023/06/28 02:14:55;;;;;;;1.92;0.90;;;14.70;99.90;;;;;;5087943;28;20066;-62
2023/06/28 02:17:21;;;;;;;1.58;0.80;;;14.80;99.90;;;;;;5071061;28;20374;-63
2023/06/28 02:19:48;;;;;;;2.90;1.00;;;14.80;99.90;;;;;;5049593;28;20051;-63
2023/06/28 02:22:15;;;;;;;0.80;0.40;;;14.80;99.90;;;;;;5067296;28;20063;-62
2023/06/28 02:24:41;;;;;;;2.40;1.00;;;14.90;99.90;;;;;;5068738;28;20051;-63
2023/06/28 02:27:08;;;;;;;1.38;0.75;;;14.90;99.90;;;;;;5068029;28;20499;-63
2023/06/28 02:29:35;;;;;;;1.60;0.82;;;14.90;99.90;;;;;;5068450;28;20056;-63
2023/06/28 02:32:01;;;;;;;2.35;0.80;;;14.90;99.90;;;;;;5067582;28;20040;-63
2023/06/28 02:34:27;;;;;;;0.98;0.50;;;14.90;99.90;;;;;;5068037;28;20037;-63
2023/06/28 02:36:53;;;;;;;1.58;0.85;;;14.90;99.90;;;;;;5067307;28;20039;-63
2023/06/28 02:39:19;;;;;;;1.15;0.57;;;14.90;99.90;;;;;;5068610;28;20040;-63
2023/06/28 02:41:45;;;;;;;1.67;0.68;;;14.90;99.90;;;;;;5066491;28;20051;-63
2023/06/28 02:44:11;;;;;;;1.27;0.68;;;15.00;99.90;;;;;;5067150;28;20048;-63
2023/06/28 02:46:36;;;;;;;3.50;1.20;;;15.00;99.90;;;;;;5067824;28;20044;-63
2023/06/28 02:49:02;;;;;;;1.38;0.70;;;15.00;99.90;;;;;;5067181;28;20051;-63
2023/06/28 02:51:28;;;;;;;1.05;0.70;;;14.90;99.90;;;;;;5070629;28;20063;-63
2023/06/28 02:53:54;;;;;;;1.10;0.70;;;15.00;99.90;;;;;;5069945;28;20083;-63
2023/06/28 02:56:23;;;;;;;0.82;0.60;;;15.00;99.90;;;;;;5053846;28;20501;-63
2023/06/28 02:58:49;;;;;;;0.82;0.32;;;15.00;99.90;;;;;;5056134;28;20036;-63
2023/06/28 03:01:15;;;;;;;0.63;0.40;;;15.00;99.90;;;;;;5090177;28;20493;-63
2023/06/28 03:03:41;;;;;;;1.20;0.70;;;15.00;99.90;;;;;;5090772;28;20052;-64
2023/06/28 03:06:07;;;;;;;1.88;0.82;;;15.00;99.90;;;;;;5073794;28;20043;-64
2023/06/28 03:08:33;;;;;;;1.88;0.85;;;15.00;99.90;;;;;;5089988;28;20052;-64
2023/06/28 03:10:59;;;;;;;1.23;0.75;;;15.00;99.90;;;;;;5090468;28;20113;-64
2023/06/28 03:13:25;;;;;;;1.85;0.75;;;15.00;99.90;;;;;;5090570;28;20036;-64
2023/06/28 03:15:51;;;;;;;1.33;0.50;;;15.00;99.90;;;;;;5070808;28;20036;-64
2023/06/28 03:18:17;;;;;;;2.38;0.70;;;15.00;99.90;;;;;;5070573;28;20032;-64
2023/06/28 03:20:43;;;;;;;1.20;0.50;;;15.00;99.90;;;;;;5053741;28;20033;-64
2023/06/28 03:23:09;;;;;;;3.42;0.60;;;15.00;99.90;;;;;;5052828;28;20160;-64
2023/06/28 03:25:35;;;;;;;2.42;0.57;;;14.90;99.90;;;;;;5070173;28;20055;-64
2023/06/28 03:28:00;;;;;;;0.65;0.52;;;14.90;99.90;;;;;;5053434;28;20412;-64
2023/06/28 03:30:26;;;;;;;7.38;0.90;;;15.00;99.90;;;;;;5069442;28;20125;-64
2023/06/28 03:32:52;;;;;;;0.85;0.63;;;15.00;99.90;;;;;;5070007;28;20040;-64
2023/06/28 03:35:18;;;;;;;0.90;0.65;;;15.00;99.90;;;;;;5070134;28;20045;-63
2023/06/28 03:37:54;;;;;;;2.45;1.23;;;14.90;99.90;;;;;;5070526;28;20500;-64
2023/06/28 03:40:20;;;;;;;4.50;1.25;;;14.90;99.90;;;;;;5071064;28;20114;-64
2023/06/28 03:42:47;;;;;;;1.75;1.00;;;14.90;99.90;;;;;;5069203;28;20539;-64
2023/06/28 03:45:17;;;;;;;1.35;0.80;;;14.90;99.90;;;;;;5053371;28;20404;-64
2023/06/28 03:47:43;;;;;;;2.05;0.70;;;14.90;99.90;;;;;;5071121;28;20486;-64
2023/06/28 03:50:09;;;;;;;1.58;0.65;;;14.90;99.90;;;;;;5068761;28;20123;-64
2023/06/28 03:52:36;;;;;;;1.40;0.60;;;14.90;99.90;;;;;;5069321;28;20067;-64
2023/06/28 03:55:03;;;;;;;3.20;0.73;;;14.90;99.90;;;;;;5052966;28;20036;-64
2023/06/28 03:57:29;;;;;;;1.42;0.50;;;14.90;99.90;;;;;;5070204;28;20497;-64
2023/06/28 03:59:55;;;;;;;4.70;0.85;;;14.90;99.90;;;;;;5082146;28;20353;-64
2023/06/28 04:02:21;;;;;;;1.65;0.98;;;14.90;99.90;;;;;;5088930;28;20047;-62
2023/06/28 04:04:47;;;;;;;2.00;1.08;;;14.90;99.90;;;;;;5090270;28;20036;-63
2023/06/28 04:07:13;;;;;;;3.30;1.42;;;14.90;99.90;;;;;;5072872;28;20047;-63
2023/06/28 04:09:40;;;;;;;2.88;1.38;;;14.90;99.90;;;;;;5090688;28;20575;-63
2023/06/28 04:12:06;;;;;;;6.28;1.23;;;14.90;99.90;;;;;;5070957;28;20066;-63
2023/06/28 04:14:32;;;;;;;2.22;1.25;;;14.90;99.90;;;;;;5070443;28;20468;-63
2023/06/28 04:16:58;;;;;;;1.25;0.77;;;15.00;99.90;;;;;;5069092;28;20040;-63
2023/06/28 04:19:24;;;;;;;2.55;1.00;;;14.90;99.90;;;;;;5069675;28;20120;-63
2023/06/28 04:21:50;;;;;;;6.22;1.10;;;15.00;99.90;;;;;;5052676;28;20177;-63
2023/06/28 04:24:16;;;;;;;2.63;1.20;;;14.90;99.90;;;;;;5069003;28;20131;-63
2023/06/28 04:26:42;;;;;;;1.98;0.90;;;14.90;99.90;;;;;;5068357;28;20344;-62
2023/06/28 04:29:08;;;;;;;2.42;1.02;;;15.00;99.90;;;;;;5068890;28;20134;-63
2023/06/28 04:31:34;;;;;;;1.75;1.00;;;14.90;99.90;;;;;;5051451;28;20102;-63
2023/06/28 04:34:00;;;;;;;1.67;0.73;;;15.00;99.90;;;;;;5068797;28;20044;-63
2023/06/28 04:36:26;;;;;;;2.05;0.95;;;15.00;99.90;;;;;;5069871;28;20036;-63
2023/06/28 04:38:55;;;;;;;2.45;1.42;;;14.90;99.90;;;;;;5068330;28;20048;-63
2023/06/28 04:41:23;;;;;;;1.88;0.93;;;15.00;99.90;;;;;;5069915;28;20488;-63
2023/06/28 04:43:49;;;;;;;3.47;0.90;;;15.00;99.90;;;;;;5068852;28;20048;-63
2023/06/28 04:46:15;;;;;;;4.75;0.80;;;15.00;99.90;;;;;;5069129;28;20551;-63
2023/06/28 04:48:42;;;;;;;3.67;1.30;;;15.00;99.90;;;;;;5068774;28;20040;-63
2023/06/28 04:51:08;;;;;;;1.60;0.88;;;14.90;99.90;;;;;;5068346;28;20044;-63
2023/06/28 04:53:34;;;;;;;2.20;0.95;;;14.90;99.90;;;;;;5068924;28;20132;-63
2023/06/28 04:56:00;;;;;;;0.65;0.55;;;14.90;99.90;;;;;;5069811;28;20055;-63
2023/06/28 04:58:27;;;;;;;3.78;0.85;;;14.80;99.90;;;;;;5069711;28;20400;-63
2023/06/28 05:00:56;;;;;;;2.95;1.30;;;14.80;99.90;;;;;;5087277;28;20078;-63
2023/06/28 05:03:26;;;;;;;1.80;1.00;;;14.70;99.90;;;;;;5090284;28;20546;-63
2023/06/28 05:05:54;;;;;;;2.40;1.40;;;14.70;99.90;;;;;;5088559;28;20558;-62
2023/06/28 05:08:20;;;;;;;1.52;0.80;;;14.60;99.90;;;;;;5068795;28;20124;-62
2023/06/28 05:10:46;;;;;;;2.33;1.40;;;14.60;99.90;;;;;;5068089;28;20041;-62
2023/06/28 05:13:12;;;;;;;3.25;1.52;;;14.50;99.90;;;;;;5069164;28;20044;-63
2023/06/28 05:15:38;;;;;;;2.63;1.15;;;14.50;99.90;;;;;;5067537;28;20045;-63
2023/06/28 05:18:04;;;;;;;1.73;1.00;;;14.50;99.90;;;;;;5068041;28;20029;-63
2023/06/28 05:20:31;;;;;;;5.30;1.33;;;14.50;99.90;;;;;;5051031;28;20040;-63
2023/06/28 05:23:11;;;;;;;2.22;0.93;;;14.50;99.90;;;;;;5051594;28;20412;-62
2023/06/28 05:25:41;;;;;;;2.25;1.20;;;14.40;99.90;;;;;;5068385;28;20446;-63
2023/06/28 05:28:08;;;;;;;2.03;0.88;;;14.40;99.90;;;;;;5067819;28;20460;-62
2023/06/28 05:30:34;;;;;;;3.97;1.20;;;14.50;99.90;;;;;;5067756;28;20123;-62
2023/06/28 05:33:02;;;;;;;1.73;0.98;;;14.50;99.90;;;;;;5067941;28;20047;-63
2023/06/28 05:35:35;;;;;;;5.57;1.00;;;14.50;99.90;;;;;;5067613;28;20128;-64
2023/06/28 05:38:02;;;;;;;8.38;2.00;;;14.50;99.90;;;;;;5069282;28;20071;-65
2023/06/28 05:40:29;;;;;;;2.00;1.20;;;14.50;99.90;;;;;;5069101;28;20433;-64
2023/06/28 05:42:57;;;;;;;1.40;0.88;;;14.50;99.90;;;;;;5069680;28;20128;-65
2023/06/28 05:45:27;;;;;;;2.38;1.00;;;14.50;99.90;;;;;;5068999;28;20067;-63
2023/06/28 05:47:53;;;;;;;2.10;1.05;;;14.50;99.90;;;;;;5068943;28;20045;-63
2023/06/28 05:50:21;;;;;;;2.53;1.02;;;14.50;99.90;;;;;;5051379;28;20052;-65
2023/06/28 05:52:48;;;;;;;3.05;1.77;;;14.50;99.90;;;;;;5069926;28;20067;-64
2023/06/28 05:55:14;;;;;;;2.97;1.40;;;14.50;99.90;;;;;;5070279;28;20731;-64
2023/06/28 05:57:40;;;;;;;2.05;0.98;;;14.50;99.90;;;;;;5068127;28;20036;-64
2023/06/28 06:00:08;;;;;;;3.42;1.23;;;14.50;99.90;;;;;;5082893;28;20492;-65
2023/06/28 06:02:34;;;;;;;2.00;1.38;;;14.50;99.90;;;;;;5085983;28;20044;-64
2023/06/28 06:05:01;;;;;;;6.82;1.35;;;14.50;99.90;;;;;;5068810;28;20039;-64
2023/06/28 06:07:27;;;;;;;4.15;1.45;;;14.50;99.90;;;;;;5069268;28;20519;-63
2023/06/28 06:09:57;;;;;;;3.55;0.82;;;14.50;99.90;;;;;;5068250;28;20445;-64
2023/06/28 06:12:24;;;;;;;2.25;1.05;;;14.50;99.90;;;;;;5068691;28;20040;-65
2023/06/28 06:14:50;;;;;;;5.53;1.20;;;14.50;99.90;;;;;;5067799;28;20396;-65
2023/06/28 06:17:17;;;;;;;2.95;1.45;;;14.50;99.90;;;;;;5068208;28;20481;-64
2023/06/28 06:19:43;;;;;;;3.55;1.48;;;14.50;99.90;;;;;;5067481;28;20520;-64
2023/06/28 06:22:09;;;;;;;2.63;1.13;;;14.60;99.90;;;;;;5068805;28;20045;-65
2023/06/28 06:24:36;;;;;;;4.63;1.42;;;14.60;99.90;;;;;;5067099;28;20052;-65
2023/06/28 06:27:03;;;;;;;2.55;0.90;;;14.60;99.90;;;;;;5071893;28;20047;-65
2023/06/28 06:29:29;;;;;;;2.97;0.90;;;14.70;99.90;;;;;;5071407;28;20048;-65
2023/06/28 06:31:55;;;;;;;2.47;1.02;;;14.70;99.90;;;;;;5070561;28;20103;-65
2023/06/28 06:34:21;;;;;;;1.80;1.13;;;14.70;99.90;;;;;;5071086;28;20043;-66
2023/06/28 06:36:47;;;;;;;2.63;0.90;;;14.70;99.90;;;;;;5072345;28;20089;-65
2023/06/28 06:39:12;;;;;;;1.77;1.00;;;14.80;99.90;;;;;;5054038;28;20033;-65
2023/06/28 06:41:38;;;;;;;2.25;1.13;;;14.80;99.90;;;;;;5071223;28;20454;-65
2023/06/28 06:44:04;;;;;;;7.18;1.15;;;14.80;99.90;;;;;;5072332;28;20501;-65
2023/06/28 06:46:30;;;;;;;0.95;0.68;;;14.80;99.90;;;;;;5062343;28;20531;-65
2023/06/28 06:48:56;;;;;;;2.78;1.50;;;14.90;99.90;;;;;;5065387;28;20291;-65
2023/06/28 06:51:22;;;;;;;2.67;1.20;;;14.90;99.90;;;;;;5070538;28;20044;-65
2023/06/28 06:53:48;;;;;;;5.25;1.33;;;14.90;99.90;;;;;;5069791;28;20053;-64
2023/06/28 06:56:22;;;;;;;2.47;1.35;;;14.90;99.90;;;;;;5070339;28;20134;-65
2023/06/28 06:58:48;;;;;;;4.88;1.52;;;15.00;99.90;;;;;;5070082;28;20116;-65
2023/06/28 07:01:14;;;;;;;2.83;1.52;;;15.00;99.90;;;;;;5053953;28;20048;-65
2023/06/28 07:03:40;;;;;;;2.58;1.00;;;15.00;99.90;;;;;;5071604;28;20048;-65
2023/06/28 07:06:06;;;;;;;4.32;1.73;;;15.00;99.90;;;;;;5071179;28;20082;-65
2023/06/28 07:08:34;;;;;;;2.70;1.10;;;15.00;99.90;;;;;;5070221;28;20044;-65
2023/06/28 07:11:00;;;;;;;3.70;1.60;;;15.10;99.90;;;;;;5070515;28;20390;-64
2023/06/28 07:13:26;;;;;;;1.45;1.08;;;15.10;99.90;;;;;;5069807;28;20098;-65
2023/06/28 07:15:51;;;;;;;2.40;1.38;;;15.20;99.90;;;;;;5070437;28;20033;-66
2023/06/28 07:18:17;;;;;;;4.55;1.13;;;15.20;99.90;;;;;;5071615;28;20555;-66
2023/06/28 07:20:43;;;;;;;2.28;0.93;;;15.30;99.90;;;;;;5069999;28;20079;-64
2023/06/28 07:23:09;;;;;;;5.68;1.40;;;15.30;99.90;;;;;;5070199;28;20040;-65
2023/06/28 07:25:35;;;;;;;2.83;1.65;;;15.30;99.90;;;;;;5053761;28;20076;-64
2023/06/28 07:28:01;;;;;;;3.13;1.10;;;15.40;99.90;;;;;;5069752;28;20401;-65
2023/06/28 07:30:29;;;;;;;1.83;1.08;;;15.40;99.90;;;;;;5070230;28;20040;-66
2023/06/28 07:32:57;;;;;;;4.97;1.40;;;15.40;99.90;;;;;;5053465;28;20093;-64
2023/06/28 07:35:23;;;;;;;2.38;1.17;;;15.40;99.90;;;;;;5070679;28;20492;-64
2023/06/28 07:37:48;;;;;;;5.07;1.52;;;15.40;99.90;;;;;;5070099;28;20041;-65
2023/06/28 07:40:17;;;;;;;5.65;1.55;;;15.40;99.90;;;;;;5069922;28;20044;-65
2023/06/28 07:42:43;;;;;;;4.87;1.50;;;15.40;99.90;;;;;;5052556;28;20048;-65
2023/06/28 07:45:09;;;;;;;2.53;1.42;;;15.50;99.90;;;;;;5069840;28;20040;-64
2023/06/28 07:47:36;;;;;;;8.93;2.13;;;15.60;99.90;;;;;;5070586;28;20048;-65
2023/06/28 07:50:02;;;;;;;4.07;1.95;;;15.60;99.90;;;;;;5069634;28;20040;-65
2023/06/28 07:52:28;;;;;;;4.68;1.73;;;15.70;99.90;;;;;;5070533;28;20098;-65
2023/06/28 07:54:54;;;;;;;3.63;1.52;;;15.60;99.90;;;;;;5052911;28;20041;-65
2023/06/28 07:57:20;;;;;;;3.78;1.77;;;15.60;99.90;;;;;;5069307;28;20386;-64
2023/06/28 07:59:45;;;;;;;3.78;2.15;;;15.60;99.90;;;;;;5063849;28;20036;-65
2023/06/28 08:02:11;;;;;;;5.03;2.00;;;15.60;99.90;;;;;;5050084;28;20041;-65
2023/06/28 08:04:37;;;;;;;5.30;2.00;;;15.60;99.90;;;;;;5050726;28;20087;-65
2023/06/28 08:07:03;;;;;;;4.25;1.88;;;15.60;99.90;;;;;;5049285;28;20049;-65
2023/06/28 08:09:29;;;;;;;6.90;2.45;;;15.60;99.90;;;;;;5048993;28;20047;-65
2023/06/28 08:11:55;;;;;;;3.50;2.17;;;15.60;99.90;;;;;;5032638;28;20491;-65
2023/06/28 08:14:20;;;;;;;3.35;2.00;;;15.60;99.90;;;;;;5032582;28;20573;-64
2023/06/28 08:16:47;;;;;;;6.80;2.17;;;15.60;99.90;;;;;;5048877;28;20037;-64
2023/06/28 08:19:14;;;;;;;5.53;2.22;;;15.70;99.90;;;;;;5032695;28;20406;-64
2023/06/28 08:21:40;;;;;;;5.68;3.03;;;15.60;99.90;;;;;;5049308;28;20044;-65
2023/06/28 08:24:06;;;;;;;5.80;2.45;;;15.60;99.90;;;;;;5048711;28;20498;-65
2023/06/28 08:26:35;;;;;;;5.40;2.83;;;15.60;99.90;;;;;;5032455;28;20048;-65
2023/06/28 08:29:02;;;;;;;;;;;15.60;99.90;;;;;;5049418;28;20056;-65
2023/06/28 08:31:29;;;;;;;5.45;2.83;;;15.70;99.90;;;;;;5049517;28;19928;-65
2023/06/28 08:33:56;;;;;;;4.72;2.38;;;15.70;99.90;;;;;;5032189;28;20041;-65
2023/06/28 08:36:21;;;;;;;7.03;2.38;;;15.70;99.90;;;;;;5048773;28;20579;-64
2023/06/28 08:38:47;;;;;;;6.00;2.22;;;15.70;99.90;;;;;;5031789;28;20112;-65
2023/06/28 08:41:14;;;;;;;5.53;3.20;;;15.70;99.90;;;;;;5048640;28;20410;-66
2023/06/28 08:43:41;;;;;;;6.50;3.30;;;15.70;99.90;;;;;;5048142;28;20041;-65
2023/06/28 08:46:07;;;;;;;4.10;2.17;;;15.70;99.90;;;;;;5032114;28;20044;-65
2023/06/28 08:48:34;;;;;;;3.80;2.53;;;15.70;99.90;;;;;;5048009;28;20045;-65
2023/06/28 08:51:01;;;;;;;5.93;2.17;;;15.80;99.90;;;;;;5047791;28;20497;-66
2023/06/28 08:53:29;;;;;;;5.30;3.00;;;15.80;99.90;;;;;;5049224;28;20516;-65
2023/06/28 08:55:56;;;;;;;5.00;2.47;;;15.90;99.90;;;;;;5068419;28;20037;-65
2023/06/28 08:58:22;;;;;;;4.05;2.42;;;15.90;99.90;;;;;;5069019;28;20043;-64
2023/06/28 09:00:48;;;;;;;4.55;2.58;;;15.90;99.90;;;;;;5087311;28;20040;-63
2023/06/28 09:03:15;;;;;;;6.35;3.17;;;15.90;99.90;;;;;;5088924;28;20071;-64
2023/06/28 09:05:42;;;;;;;5.32;2.63;;;16.00;99.90;;;;;;5087254;28;20044;-65
2023/06/28 09:08:09;;;;;;;4.97;2.47;;;16.00;99.90;;;;;;5089834;28;20043;-65
2023/06/28 09:10:36;;;;;;;5.93;2.85;;;15.90;99.90;;;;;;5088351;28;20044;-66
2023/06/28 09:13:03;;;;;;;4.55;2.47;;;16.00;99.90;;;;;;5071263;28;20462;-65
2023/06/28 09:15:29;;;;;;;6.15;2.88;;;16.00;99.90;;;;;;5088618;28;20043;-65
2023/06/28 09:17:55;;;;;;;7.72;3.42;;;16.10;99.90;;;;;;5088579;28;20376;-65
2023/06/28 09:20:21;;;;;;;4.50;2.60;;;16.10;99.90;;;;;;5089247;28;20040;-64
2023/06/28 09:22:58;;;;;;;9.00;3.38;;;16.20;99.90;;;;;;5088579;28;20066;-65
2023/06/28 09:25:31;;;;;;;7.55;2.95;;;16.20;99.90;;;;;;5088311;28;20047;-64
2023/06/28 09:27:57;;;;;;;9.30;3.60;;;16.20;99.90;;;;;;5071287;28;20044;-65
2023/06/28 09:30:23;;;;;;;7.22;2.92;;;16.30;99.90;;;;;;5089342;28;20043;-64
2023/06/28 09:32:52;;;;;;;4.43;2.40;;;16.30;99.90;;;;;;5087784;28;20040;-64
2023/06/28 09:35:19;;;;;;;7.07;2.47;;;16.40;99.90;;;;;;5089583;28;20040;-64
2023/06/28 09:37:50;;;;;;;4.63;2.65;;;16.40;99.90;;;;;;5071553;28;20082;-65
2023/06/28 09:40:17;;;;;;;6.18;3.55;;;16.40;99.90;;;;;;5088792;28;20040;-65
2023/06/28 09:42:44;;;;;;;5.47;2.67;;;16.40;99.90;;;;;;5088077;28;20044;-65
2023/06/28 09:45:22;;;;;;;3.65;2.13;;;16.40;99.90;;;;;;5087972;28;20105;-64
2023/06/28 09:47:55;;;;;;;4.97;2.40;;;16.40;99.90;;;;;;5083476;28;20379;-64
2023/06/28 09:50:21;;;;;;;9.82;2.83;;;16.40;99.90;;;;;;5068891;28;20123;-66
2023/06/28 09:52:47;;;;;;;5.75;3.50;;;16.40;99.90;;;;;;5063133;28;20189;-65
2023/06/28 09:55:12;;;;;;;7.40;2.63;;;16.40;99.90;;;;;;5050309;28;20051;-65
2023/06/28 09:57:41;;;;;;;7.80;3.20;;;16.50;99.90;;;;;;5068958;28;20037;-66
2023/06/28 10:00:08;;;;;;;7.07;3.38;;;16.50;99.90;;;;;;5081287;28;20124;-65
2023/06/28 10:02:34;;;;;;;5.10;3.10;;;16.60;99.90;;;;;;5091472;28;20036;-65
2023/06/28 10:05:02;;;;;;;8.30;3.35;;;16.70;99.90;;;;;;5075250;28;20046;-66
2023/06/28 10:07:28;;;;;;;5.60;2.90;;;16.80;99.90;;;;;;5083739;28;20147;-65
2023/06/28 10:09:55;;;;;;;5.60;2.90;;;16.80;99.90;;;;;;5068987;28;20090;-66
2023/06/28 10:12:25;;;;;;;7.63;2.95;;;16.80;99.90;;;;;;5072646;28;20595;-65
2023/06/28 10:15:01;;;;;;;7.03;3.83;;;16.90;99.90;;;;;;5063431;28;20036;-66
2023/06/28 10:17:35;;;;;;;8.30;3.25;;;16.90;99.90;;;;;;5051673;28;20378;-65
2023/06/28 10:20:02;;;;;;;6.43;3.70;;;16.90;99.90;;;;;;5051667;28;20033;-66
2023/06/28 10:22:29;;;;;;;8.82;3.22;;;16.90;99.90;;;;;;5034161;28;20353;-66
2023/06/28 10:24:56;;;;;;;7.22;3.50;;;16.90;99.90;;;;;;5052578;28;20295;-66
2023/06/28 10:27:23;;;;;;;9.35;4.03;;;16.90;99.90;;;;;;5067863;28;20563;-66
2023/06/28 10:29:51;;;;;;;7.65;3.67;;;16.90;99.90;;;;;;5071825;28;20048;-66
2023/06/28 10:32:16;;;;;;;7.20;3.78;;;16.90;99.90;;;;;;5071294;28;20127;-65
2023/06/28 10:34:48;;;;;;;7.15;3.72;;;16.90;99.90;;;;;;5072184;28;20553;-65
2023/06/28 10:37:22;;;;;;;9.10;3.88;;;16.90;99.90;;;;;;5071905;28;20067;-65
2023/06/28 10:39:52;;;;;;;5.65;3.55;;;16.90;99.90;;;;;;5054640;28;20439;-66
2023/06/28 10:42:19;;;;;;;7.15;4.13;;;16.90;99.90;;;;;;5070990;28;20045;-65
2023/06/28 10:44:53;;;;;;;8.23;4.05;;;16.90;99.90;;;;;;5069213;28;20036;-65
2023/06/28 10:47:19;;;;;;;7.35;3.97;;;16.90;99.90;;;;;;5072629;28;20070;-66
2023/06/28 10:50:10;;;;;;;8.48;3.88;;;17.00;99.90;;;;;;5070016;28;20466;-66
2023/06/28 10:52:48;;;;;;;6.65;3.28;;;17.00;99.90;;;;;;5070581;28;20052;-67
2023/06/28 10:55:29;;;;;;;9.07;5.03;;;17.00;99.90;;;;;;5050865;28;20557;-65
2023/06/28 10:58:11;;;;;;;14.57;4.85;;;17.00;99.90;;;;;;5050155;28;20048;-66
2023/06/28 11:00:37;;;;;;;10.20;4.60;;;17.00;99.90;;;;;;5085247;28;20051;-66
2023/06/28 11:03:06;;;;;;;18.05;5.55;;;17.00;99.90;;;;;;5092129;28;20040;-65
2023/06/28 11:05:41;;;;;;;6.90;4.57;;;17.00;99.90;;;;;;5052341;28;20049;-66
2023/06/28 11:08:14;;;;;;;11.25;4.30;;;17.00;99.90;;;;;;5051176;28;20091;-65
2023/06/28 11:10:42;;;;;;;9.38;4.30;;;17.00;99.90;;;;;;5050445;28;20142;-66
2023/06/28 11:13:09;;;;;;;10.13;5.03;;;17.00;99.90;;;;;;5051045;28;20087;-66
2023/06/28 11:15:36;;;;;;;13.30;4.65;;;17.00;99.90;;;;;;5051242;28;20094;-66
2023/06/28 11:18:16;;;;;;;11.05;3.95;;;17.00;99.90;;;;;;5051527;28;20473;-66
2023/06/28 11:20:52;;;;;;;9.50;4.72;;;17.00;99.90;;;;;;5052346;28;20051;-65
2023/06/28 11:23:39;;;;;;;11.68;5.78;;;17.10;99.90;;;;;;5050948;28;20045;-65
2023/06/28 11:26:12;;;;;;;9.23;4.03;;;17.10;99.90;;;;;;5050411;28;20132;-66
2023/06/28 11:28:50;;;;;;;8.75;4.47;;;17.00;99.90;;;;;;5051054;28;20045;-66
2023/06/28 11:31:21;;;;;;;10.18;4.43;;;17.10;99.90;;;;;;5050590;28;20044;-65
2023/06/28 11:33:48;;;;;;;11.27;5.10;;;17.10;99.90;;;;;;5050649;28;20048;-65
2023/06/28 11:36:15;;;;;;;7.22;4.70;;;17.10;99.90;;;;;;5050403;28;20048;-65
2023/06/28 11:38:45;;;;;;;13.57;5.30;;;17.10;99.90;;;;;;5049087;28;20040;-65
2023/06/28 11:41:14;;;;;;;10.98;5.15;;;17.10;99.90;;;;;;5060845;28;20040;-65
2023/06/28 11:43:43;;;;;;;9.23;5.20;;;17.10;99.90;;;;;;5071834;28;20075;-65
2023/06/28 11:46:09;;;;;;;9.57;5.00;;;17.20;99.90;;;;;;5071282;28;20055;-66
2023/06/28 11:48:38;;;;;;;9.70;5.13;;;17.20;99.90;;;;;;5071993;28;20044;-64
2023/06/28 11:51:05;;;;;;;10.73;4.93;;;17.20;99.90;;;;;;5071822;28;20393;-65
2023/06/28 11:53:31;;;;;;;12.20;5.22;;;17.30;99.90;;;;;;5069296;28;20071;-65
2023/06/28 11:55:58;;;;;;;10.68;5.68;;;17.30;99.90;;;;;;5071777;28;20093;-65
2023/06/28 11:58:31;;;;;;;10.35;5.43;;;17.50;99.90;;;;;;5070253;28;20037;-65
2023/06/28 12:01:01;;;;;;;9.57;5.70;;;17.50;99.90;;;;;;5049860;28;20238;-65
2023/06/28 12:03:31;;;;;;;12.85;5.60;;;17.70;99.90;;;;;;5049429;28;20520;-64
2023/06/28 12:05:58;;;;;;;8.60;5.22;;;17.70;99.90;;;;;;5050518;28;20493;-65
2023/06/28 12:08:24;;;;;;;12.73;5.80;;;17.80;99.90;;;;;;5048632;28;20102;-65
2023/06/28 12:10:50;;;;;;;10.70;5.57;;;17.80;99.90;;;;;;5049231;28;20051;-64
2023/06/28 12:13:23;;;;;;;8.70;5.32;;;17.80;99.90;;;;;;5050699;28;20502;-64
2023/06/28 12:15:49;;;;;;;9.52;4.65;;;17.90;99.90;;;;;;5050166;28;20357;-65
2023/06/28 12:18:16;;;;;;;9.80;5.53;;;17.90;99.90;;;;;;5032501;28;20052;-65
2023/06/28 12:20:41;;;;;;;12.25;5.38;;;18.00;99.90;;;;;;5048399;28;20056;-65
2023/06/28 12:23:14;;;;;;;9.38;5.50;;;18.10;99.90;;;;;;5048131;28;20044;-64
2023/06/28 12:25:43;;;;;;;8.20;4.68;;;18.10;99.90;;;;;;5050436;28;20522;-64
2023/06/28 12:28:13;;;;;;;11.27;5.68;;;18.20;99.90;;;;;;5048620;28;20041;-64
2023/06/28 12:30:39;;;;;;;10.50;4.97;;;18.20;99.90;;;;;;5048687;28;20059;-64
2023/06/28 12:33:07;;;;;;;14.88;4.53;;;18.30;99.90;;;;;;5048959;28;20108;-64
2023/06/28 12:35:33;;;;;;;8.10;4.80;;;18.40;99.90;;;;;;5048040;28;20131;-65
2023/06/28 12:38:02;;;;;;;16.95;6.32;;;18.50;99.90;;;;;;5046783;28;20045;-64
2023/06/28 12:40:30;;;;;;;11.85;5.78;;;18.60;99.90;;;;;;5069668;28;20036;-65
2023/06/28 12:43:11;;;;;;;11.60;6.45;;;18.70;99.90;;;;;;5069582;28;20080;-64
2023/06/28 12:45:50;;;;;;;12.48;5.30;;;18.80;99.90;;;;;;5069586;28;20584;-64